Sierra de la Ventana, Argentina
Current Conditions -  °F | °C
As of 5:00 PM on Monday 22 Dec 2014 (Local Time) from SAZM Reporting Station
Scattered Clouds Scattered Clouds  
Wind Chill: 64°   Ceiling: Unl
Heat Index: 64°   Visibility: 6mi
Dew Point: 43°   Wind: 14mph
Humidity: 45%   Direction: 200°SSW
Pressure: 30.06"   Gusts: NA
Location:  38.12°S, 61.77°W
Report Text: SAZM 222000Z 20012KT 9999 FEW025TCU SCT030 18/06 Q1018
Loading
Personal Weather Stations






























Interactive Weather Map New forecast layout! Learn more

10-Day Weather Forecast

Advertisements
Track Severe Weather on mobile